Time;durP1;ratioP1;P1;durP2;ratioP2;P2;SDS_P1;SDS_P2;PMS_P1;PMS_P2;Temp;Humidity;BMP_temperature;BMP_pressure;BME280_temperature;BME280_humidity;BME280_pressure;Samples;Min_cycle;Max_cycle;Signal;HPM_P1;HPM_P2
2022/05/22 00:00:32;;;;;;;17.23;7.15;;;9.20;99.90;;;;;;5047094;28;20053;-58
2022/05/22 00:02:58;;;;;;;20.00;8.15;;;9.00;99.90;;;;;;5047189;28;20034;-58
2022/05/22 00:05:24;;;;;;;22.73;9.43;;;8.90;99.90;;;;;;5031884;28;20033;-58
2022/05/22 00:07:50;;;;;;;18.95;9.35;;;9.00;99.90;;;;;;5030748;28;20377;-58
2022/05/22 00:10:17;;;;;;;26.30;9.80;;;8.90;99.90;;;;;;5032039;28;20117;-58
2022/05/22 00:12:43;;;;;;;16.90;8.98;;;8.90;99.90;;;;;;5046899;28;20044;-59
2022/05/22 00:15:11;;;;;;;22.42;9.80;;;8.90;99.90;;;;;;5032065;28;20052;-59
2022/05/22 00:17:37;;;;;;;20.58;10.27;;;8.90;99.90;;;;;;5063409;28;20049;-59
2022/05/22 00:20:04;;;;;;;22.08;11.77;;;8.90;99.90;;;;;;5030492;28;20124;-58
2022/05/22 00:22:31;;;;;;;25.35;14.32;;;8.90;99.90;;;;;;5031650;28;20506;-58
2022/05/22 00:24:57;;;;;;;27.05;13.27;;;8.80;99.90;;;;;;5030318;28;20053;-59
2022/05/22 00:27:23;;;;;;;29.15;14.88;;;8.70;99.90;;;;;;5030039;28;20049;-58
2022/05/22 00:29:48;;;;;;;27.85;13.85;;;8.60;99.90;;;;;;5031781;28;20029;-58
2022/05/22 00:32:14;;;;;;;27.60;12.80;;;8.70;99.90;;;;;;5030330;28;20048;-58
2022/05/22 00:34:40;;;;;;;29.55;11.35;;;8.80;99.90;;;;;;5031533;28;20044;-58
2022/05/22 00:37:06;;;;;;;20.48;10.85;;;8.70;99.90;;;;;;5030006;28;20203;-58
2022/05/22 00:39:33;;;;;;;23.02;12.07;;;8.70;99.90;;;;;;5031533;28;20045;-58
2022/05/22 00:41:59;;;;;;;26.35;11.23;;;8.70;99.90;;;;;;5029845;28;20496;-58
2022/05/22 00:44:25;;;;;;;20.52;9.63;;;8.70;99.90;;;;;;5031255;28;20187;-58
2022/05/22 00:46:51;;;;;;;20.75;9.95;;;8.80;99.90;;;;;;5029945;28;20128;-59
2022/05/22 00:49:27;;;;;;;20.55;9.73;;;8.70;99.90;;;;;;5031062;28;20041;-58
2022/05/22 00:52:02;;;;;;;19.63;10.85;;;8.70;99.90;;;;;;5031142;28;20041;-58
2022/05/22 00:54:33;;;;;;;24.65;9.35;;;8.70;99.90;;;;;;5029787;28;20049;-59
2022/05/22 00:57:02;;;;;;;20.45;10.80;;;8.80;99.90;;;;;;5031331;28;20045;-59
2022/05/22 00:59:33;;;;;;;21.60;10.68;;;8.80;99.90;;;;;;5029748;28;20045;-59
2022/05/22 01:02:01;;;;;;;23.70;10.70;;;8.80;99.90;;;;;;5029918;28;20115;-59
2022/05/22 01:04:30;;;;;;;21.98;10.00;;;8.70;99.90;;;;;;5046213;28;20034;-58
2022/05/22 01:06:56;;;;;;;23.90;10.25;;;8.60;99.90;;;;;;5031145;28;20105;-59
2022/05/22 01:09:22;;;;;;;19.35;9.40;;;8.70;99.90;;;;;;5029401;28;20049;-59
2022/05/22 01:11:52;;;;;;;21.48;9.52;;;8.60;99.90;;;;;;5013397;28;20045;-58
2022/05/22 01:14:22;;;;;;;26.00;9.68;;;8.60;99.90;;;;;;5046006;28;20381;-59
2022/05/22 01:16:50;;;;;;;23.88;9.73;;;8.60;99.90;;;;;;5029806;28;20382;-59
2022/05/22 01:19:21;;;;;;;23.25;8.98;;;8.50;99.90;;;;;;5029343;28;20045;-59
2022/05/22 01:22:09;;;;;;;22.58;9.55;;;8.50;99.90;;;;;;5031003;28;20049;-58
2022/05/22 01:24:36;;;;;;;25.08;9.60;;;8.50;99.90;;;;;;5030602;28;20467;-59
2022/05/22 01:27:04;;;;;;;24.05;10.20;;;8.40;99.90;;;;;;5030975;28;20095;-58
2022/05/22 01:29:30;;;;;;;25.35;9.88;;;8.40;99.90;;;;;;5029008;28;20037;-59
2022/05/22 01:31:55;;;;;;;22.17;10.35;;;8.40;99.90;;;;;;5010947;28;20045;-59
2022/05/22 01:34:21;;;;;;;24.10;10.57;;;8.30;99.90;;;;;;5011889;28;20064;-59
2022/05/22 01:36:47;;;;;;;20.85;9.63;;;8.40;99.90;;;;;;5027701;28;20029;-59
2022/05/22 01:39:13;;;;;;;25.40;10.15;;;8.20;99.90;;;;;;5027898;28;20056;-59
2022/05/22 01:41:38;;;;;;;23.92;10.18;;;8.20;99.90;;;;;;5027795;28;20042;-59
2022/05/22 01:44:04;;;;;;;24.77;11.00;;;8.20;99.90;;;;;;5027750;28;20053;-59
2022/05/22 01:46:30;;;;;;;26.70;10.70;;;8.20;99.90;;;;;;5027722;28;20500;-59
2022/05/22 01:48:57;;;;;;;27.20;11.48;;;8.20;99.90;;;;;;5011192;28;20052;-60
2022/05/22 01:51:24;;;;;;;25.02;11.52;;;8.20;99.90;;;;;;5027655;28;20037;-59
2022/05/22 01:53:50;;;;;;;28.73;12.77;;;8.10;99.90;;;;;;5027998;28;20057;-60
2022/05/22 01:56:16;;;;;;;28.70;11.50;;;8.20;99.90;;;;;;5061207;28;20045;-59
2022/05/22 01:58:41;;;;;;;31.50;12.85;;;8.00;99.90;;;;;;5027564;28;20048;-59
2022/05/22 02:01:08;;;;;;;26.90;12.40;;;8.10;99.90;;;;;;5027476;28;20119;-59
2022/05/22 02:03:34;;;;;;;29.00;12.50;;;8.20;99.90;;;;;;5029136;28;20046;-59
2022/05/22 02:06:00;;;;;;;31.42;13.07;;;8.00;99.90;;;;;;5027474;28;20063;-59
2022/05/22 02:08:27;;;;;;;25.83;13.63;;;8.10;99.90;;;;;;5030042;28;20237;-59
2022/05/22 02:11:00;;;;;;;36.53;14.27;;;8.10;99.90;;;;;;5048185;28;20053;-59
2022/05/22 02:13:37;;;;;;;35.17;14.50;;;8.00;99.90;;;;;;5031697;28;20037;-59
2022/05/22 02:16:03;;;;;;;32.85;13.45;;;8.00;99.90;;;;;;5032996;28;20040;-59
2022/05/22 02:18:29;;;;;;;34.83;14.10;;;8.00;99.90;;;;;;5031809;28;20045;-59
2022/05/22 02:20:56;;;;;;;32.00;15.20;;;8.10;99.90;;;;;;5048511;28;20049;-59
2022/05/22 02:23:22;;;;;;;29.90;13.60;;;8.10;99.90;;;;;;5064488;28;20049;-59
2022/05/22 02:25:50;;;;;;;31.15;15.00;;;8.00;99.90;;;;;;5031131;28;20136;-59
2022/05/22 02:28:17;;;;;;;34.78;16.08;;;8.00;99.90;;;;;;5031345;28;20060;-59
2022/05/22 02:30:48;;;;;;;32.88;15.90;;;7.90;99.90;;;;;;5033131;28;20077;-59
2022/05/22 02:33:13;;;;;;;32.50;16.02;;;8.00;99.90;;;;;;5031526;28;20053;-59
2022/05/22 02:35:40;;;;;;;38.80;16.95;;;7.90;99.90;;;;;;4998947;28;20156;-59
2022/05/22 02:38:06;;;;;;;39.42;17.90;;;8.00;99.90;;;;;;5031597;28;20045;-59
2022/05/22 02:40:33;;;;;;;33.40;17.08;;;7.90;99.90;;;;;;5031174;28;20045;-59
2022/05/22 02:43:00;;;;;;;37.22;18.38;;;8.10;99.90;;;;;;5032417;28;20427;-59
2022/05/22 02:45:29;;;;;;;32.20;17.13;;;8.00;99.90;;;;;;5031084;28;20041;-59
2022/05/22 02:47:55;;;;;;;39.42;17.38;;;7.90;99.90;;;;;;5064212;28;20064;-59
2022/05/22 02:50:23;;;;;;;37.58;18.75;;;8.00;99.90;;;;;;5030980;28;20045;-59
2022/05/22 02:52:50;;;;;;;40.67;19.73;;;8.00;99.90;;;;;;5064874;28;20488;-59
2022/05/22 02:55:17;;;;;;;29.80;17.13;;;7.90;99.90;;;;;;5064554;28;20091;-59
2022/05/22 02:57:43;;;;;;;36.95;17.10;;;8.00;99.90;;;;;;5031445;28;20045;-58
2022/05/22 03:00:15;;;;;;;33.53;17.27;;;7.80;99.90;;;;;;5030886;28;20064;-58
2022/05/22 03:02:41;;;;;;;30.00;18.02;;;7.80;99.90;;;;;;5032377;28;20168;-58
2022/05/22 03:05:07;;;;;;;34.38;18.80;;;7.90;99.90;;;;;;5064450;28;20550;-58
2022/05/22 03:07:36;;;;;;;47.75;20.90;;;7.90;99.90;;;;;;5014242;28;20059;-58
2022/05/22 03:10:03;;;;;;;45.40;20.13;;;7.90;99.90;;;;;;5032118;28;20038;-58
2022/05/22 03:12:30;;;;;;;33.70;19.08;;;7.80;99.90;;;;;;5030408;28;20045;-58
2022/05/22 03:14:58;;;;;;;40.80;20.05;;;7.80;99.90;;;;;;5032188;28;20044;-58
2022/05/22 03:17:24;;;;;;;42.03;21.35;;;7.80;99.90;;;;;;5031766;28;20399;-58
2022/05/22 03:19:50;;;;;;;35.22;18.65;;;7.90;99.90;;;;;;5029420;28;20777;-58
2022/05/22 03:22:16;;;;;;;42.28;21.40;;;8.00;99.90;;;;;;5030291;28;20146;-58
2022/05/22 03:24:42;;;;;;;39.10;22.02;;;7.80;99.90;;;;;;5047351;28;20080;-58
2022/05/22 03:27:11;;;;;;;34.38;18.95;;;7.80;99.90;;;;;;5013804;28;20131;-58
2022/05/22 03:29:38;;;;;;;43.30;21.30;;;7.90;99.90;;;;;;5030231;28;20067;-58
2022/05/22 03:32:05;;;;;;;42.17;21.90;;;8.00;99.90;;;;;;5030269;28;20069;-58
2022/05/22 03:34:31;;;;;;;47.28;23.13;;;7.80;99.90;;;;;;5030548;28;20081;-58
2022/05/22 03:36:57;;;;;;;37.53;20.98;;;7.80;99.90;;;;;;5046750;28;20537;-58
2022/05/22 03:39:23;;;;;;;43.15;22.10;;;7.80;99.90;;;;;;5031361;28;20078;-58
2022/05/22 03:41:49;;;;;;;41.83;22.23;;;7.90;99.90;;;;;;5030083;28;20075;-58
2022/05/22 03:44:15;;;;;;;44.85;24.33;;;7.80;99.90;;;;;;5030096;28;20057;-58
2022/05/22 03:46:41;;;;;;;45.50;22.33;;;7.80;99.90;;;;;;5029813;28;20060;-58
2022/05/22 03:49:07;;;;;;;42.65;22.02;;;7.90;99.90;;;;;;5031293;28;20041;-58
2022/05/22 03:51:34;;;;;;;48.97;24.38;;;7.90;99.90;;;;;;5063163;28;20103;-58
2022/05/22 03:54:00;;;;;;;48.20;24.20;;;7.80;99.90;;;;;;5030173;28;20496;-58
2022/05/22 03:56:26;;;;;;;43.65;20.52;;;8.00;99.90;;;;;;5031089;28;20041;-58
2022/05/22 03:58:52;;;;;;;39.85;20.83;;;7.80;99.90;;;;;;5030228;28;20052;-58
2022/05/22 04:01:18;;;;;;;39.85;21.88;;;7.80;99.90;;;;;;5046119;28;20049;-58
2022/05/22 04:03:44;;;;;;;47.97;23.42;;;8.00;99.90;;;;;;5029922;28;20506;-58
2022/05/22 04:06:11;;;;;;;43.85;25.45;;;8.00;99.90;;;;;;5029386;28;20055;-58
2022/05/22 04:08:38;;;;;;;49.78;25.02;;;7.90;99.90;;;;;;5030899;28;20045;-58
2022/05/22 04:11:12;;;;;;;46.97;23.83;;;8.00;99.90;;;;;;5029346;28;20041;-58
2022/05/22 04:13:39;;;;;;;44.88;23.58;;;7.90;99.90;;;;;;5030844;28;20102;-58
2022/05/22 04:16:05;;;;;;;40.45;23.23;;;8.00;99.90;;;;;;5029740;28;20038;-59
2022/05/22 04:18:31;;;;;;;39.63;22.92;;;8.00;99.90;;;;;;5030535;28;20423;-59
2022/05/22 04:20:56;;;;;;;49.28;25.45;;;8.00;99.90;;;;;;5031031;28;20083;-58
2022/05/22 04:26:07;;;;;;;49.50;24.65;;;8.10;99.90;;;;;;5029335;28;20049;-58
2022/05/22 04:28:33;;;;;;;40.35;23.65;;;8.20;99.90;;;;;;5030440;28;20052;-58
2022/05/22 04:30:59;;;;;;;44.47;23.33;;;8.30;99.90;;;;;;5030030;28;20341;-58
2022/05/22 04:33:26;;;;;;;34.72;21.45;;;8.30;99.90;;;;;;5030337;28;20037;-58
2022/05/22 04:35:53;;;;;;;41.10;23.88;;;8.50;99.90;;;;;;5062643;28;20050;-58
2022/05/22 04:38:19;;;;;;;37.72;21.88;;;8.50;99.90;;;;;;5030382;28;20397;-58
2022/05/22 04:41:02;;;;;;;37.15;21.80;;;8.70;99.90;;;;;;5030036;28;20048;-58
2022/05/22 04:43:29;;;;;;;37.20;21.43;;;8.70;99.90;;;;;;5028654;28;20060;-59
2022/05/22 04:45:56;;;;;;;40.92;21.08;;;8.80;99.90;;;;;;5062289;28;20375;-59
2022/05/22 04:48:24;;;;;;;37.50;21.00;;;8.90;99.90;;;;;;5030303;28;20041;-59
2022/05/22 04:50:51;;;;;;;37.42;21.45;;;9.10;99.90;;;;;;5028806;28;20156;-59
2022/05/22 04:53:19;;;;;;;32.22;20.67;;;9.10;99.90;;;;;;5028518;28;20065;-59
2022/05/22 04:55:45;;;;;;;31.17;18.52;;;9.20;99.90;;;;;;5029918;28;20045;-59
2022/05/22 04:58:12;;;;;;;28.65;19.25;;;9.40;99.90;;;;;;5028405;28;20056;-59
2022/05/22 05:00:39;;;;;;;29.98;18.05;;;9.20;99.90;;;;;;5028499;28;20168;-58
2022/05/22 05:03:05;;;;;;;25.33;17.48;;;9.50;99.90;;;;;;5061597;28;20068;-59
2022/05/22 05:05:31;;;;;;;29.75;17.25;;;9.50;99.90;;;;;;5061845;28;20052;-58
2022/05/22 05:07:57;;;;;;;28.13;15.32;;;9.50;99.90;;;;;;5028319;28;20124;-58
2022/05/22 05:10:24;;;;;;;28.77;16.13;;;9.60;99.90;;;;;;5012091;28;20519;-59
2022/05/22 05:12:49;;;;;;;29.83;15.80;;;9.60;99.90;;;;;;5028384;28;20115;-59
2022/05/22 05:15:17;;;;;;;27.45;14.60;;;9.60;99.90;;;;;;5011750;28;20132;-58
2022/05/22 05:17:45;;;;;;;28.08;14.05;;;9.70;99.90;;;;;;5029741;28;20352;-59
2022/05/22 05:20:13;;;;;;;24.17;13.70;;;9.90;99.90;;;;;;5028425;28;20048;-59
2022/05/22 05:22:39;;;;;;;23.58;13.30;;;9.90;99.90;;;;;;5029630;28;20089;-59
2022/05/22 05:25:06;;;;;;;23.60;12.50;;;10.00;99.90;;;;;;5029401;28;20037;-58
2022/05/22 05:27:31;;;;;;;19.60;10.50;;;10.10;99.90;;;;;;5028133;28;20041;-58
2022/05/22 05:29:57;;;;;;;18.58;9.82;;;10.60;99.90;;;;;;5029517;28;20461;-59
2022/05/22 05:32:23;;;;;;;17.00;7.97;;;11.00;99.90;;;;;;5045032;28;20046;-58
2022/05/22 05:35:01;;;;;;;17.08;7.20;;;11.50;99.90;;;;;;5029376;28;20072;-59
2022/05/22 05:37:27;;;;;;;13.68;6.32;;;11.90;99.90;;;;;;5029179;28;20124;-59
2022/05/22 05:39:54;;;;;;;14.27;5.90;;;12.10;99.90;;;;;;5027900;28;20045;-59
2022/05/22 05:42:21;;;;;;;14.40;5.07;;;12.40;99.90;;;;;;5060601;28;20049;-59
2022/05/22 05:44:48;;;;;;;13.55;5.45;;;12.80;99.90;;;;;;5027851;28;20045;-59
2022/05/22 05:47:14;;;;;;;12.82;4.72;;;13.10;99.90;;;;;;5045121;28;20060;-59
2022/05/22 05:49:40;;;;;;;17.17;5.35;;;13.10;99.90;;;;;;5027829;28;20042;-59
2022/05/22 05:52:07;;;;;;;13.75;4.78;;;13.20;99.90;;;;;;5028044;28;20053;-59
2022/05/22 05:54:33;;;;;;;11.40;4.65;;;13.30;99.90;;;;;;5027958;28;20037;-59
2022/05/22 05:56:58;;;;;;;13.05;4.32;;;13.60;99.90;;;;;;5027987;28;20052;-60
2022/05/22 05:59:25;;;;;;;10.80;4.50;;;13.60;99.90;;;;;;5027596;28;20052;-60
2022/05/22 06:01:51;;;;;;;11.38;4.72;;;13.80;99.90;;;;;;5028010;28;20053;-60
2022/05/22 06:04:17;;;;;;;12.07;4.47;;;14.00;99.90;;;;;;5027788;28;20048;-60
2022/05/22 06:06:43;;;;;;;13.40;4.65;;;14.10;99.90;;;;;;5061271;28;20469;-60
2022/05/22 06:09:09;;;;;;;13.18;4.40;;;14.20;99.90;;;;;;5027728;28;20049;-60
2022/05/22 06:11:35;;;;;;;14.57;4.20;;;14.30;99.90;;;;;;5027736;28;20041;-60
2022/05/22 06:14:01;;;;;;;15.85;4.18;;;14.50;99.90;;;;;;5027754;28;20164;-59
2022/05/22 06:16:27;;;;;;;15.15;4.43;;;14.50;99.90;;;;;;5027594;28;20153;-59
2022/05/22 06:18:52;;;;;;;14.60;4.15;;;14.60;99.90;;;;;;5027700;28;20578;-60
2022/05/22 06:21:21;;;;;;;13.30;4.10;;;14.60;99.90;;;;;;5027604;28;20045;-60
2022/05/22 06:23:47;;;;;;;14.25;4.03;;;14.60;99.90;;;;;;5027703;28;20490;-59
2022/05/22 06:26:15;;;;;;;18.88;4.53;;;14.80;99.90;;;;;;5011479;28;20581;-59
2022/05/22 06:28:41;;;;;;;10.45;4.13;;;14.70;99.90;;;;;;5028356;28;20136;-60
2022/05/22 06:31:08;;;;;;;10.45;3.63;;;14.70;99.90;;;;;;5011318;28;20042;-60
2022/05/22 06:33:34;;;;;;;12.32;3.75;;;14.90;99.90;;;;;;5044234;28;20037;-60
2022/05/22 06:36:06;;;;;;;10.13;3.33;;;15.00;99.90;;;;;;5027828;28;20132;-60
2022/05/22 06:41:16;;;;;;;12.32;3.25;;;15.00;99.90;;;;;;5046673;28;20677;-60
2022/05/22 06:43:42;;;;;;;10.50;3.38;;;15.10;99.90;;;;;;4994711;28;20094;-60
2022/05/22 06:46:08;;;;;;;11.23;3.20;;;15.30;99.90;;;;;;5027641;28;20534;-60
2022/05/22 06:48:34;;;;;;;9.07;2.70;;;15.50;99.90;;;;;;5027523;28;20176;-60
2022/05/22 06:51:00;;;;;;;8.40;2.28;;;15.60;99.90;;;;;;5029054;28;20122;-60
2022/05/22 06:53:26;;;;;;;9.23;2.70;;;15.80;99.90;;;;;;5028095;28;20045;-60
2022/05/22 06:55:52;;;;;;;11.25;2.47;;;15.60;99.90;;;;;;5014384;28;20041;-60
2022/05/22 06:58:17;;;;;;;11.13;3.13;;;15.80;99.90;;;;;;5032722;28;20119;-59
2022/05/22 07:00:43;;;;;;;8.05;2.47;;;16.00;99.90;;;;;;5030580;28;20091;-59
2022/05/22 07:03:09;;;;;;;10.93;2.78;;;16.20;99.90;;;;;;5031894;28;20053;-59
2022/05/22 07:05:34;;;;;;;11.02;2.65;;;16.30;99.90;;;;;;5032301;28;21111;-59
2022/05/22 07:08:00;;;;;;;9.05;2.47;;;16.40;99.90;;;;;;5048440;28;20042;-59
2022/05/22 07:13:16;;;;;;;12.38;2.47;;;16.40;99.90;;;;;;5031636;28;20049;-59
2022/05/22 07:15:42;;;;;;;9.68;2.28;;;16.40;99.90;;;;;;5033485;28;20145;-59
2022/05/22 07:18:08;;;;;;;9.20;2.20;;;16.50;99.90;;;;;;5033155;28;20120;-59
2022/05/22 07:20:33;;;;;;;8.07;1.92;;;16.80;99.90;;;;;;5031556;28;20045;-60
2022/05/22 07:22:59;;;;;;;8.88;1.75;;;17.00;99.90;;;;;;4998892;28;20049;-60
2022/05/22 07:25:26;;;;;;;9.43;1.80;;;17.20;99.90;;;;;;5031673;28;20045;-60
2022/05/22 07:27:52;;;;;;;10.32;2.08;;;17.10;99.90;;;;;;5064662;28;20050;-60
2022/05/22 07:30:18;;;;;;;10.65;1.83;;;17.40;99.90;;;;;;5032534;28;20568;-60
2022/05/22 07:32:43;;;;;;;9.23;1.33;;;17.60;99.90;;;;;;5031452;28;20128;-60
2022/05/22 07:35:09;;;;;;;8.10;1.40;;;17.30;99.90;;;;;;5032674;28;20046;-60
2022/05/22 07:37:35;;;;;;;7.93;1.65;;;17.30;99.90;;;;;;5031262;28;20060;-60
2022/05/22 07:40:01;;;;;;;10.00;1.70;;;17.30;99.90;;;;;;5031321;28;20045;-60
2022/05/22 07:42:27;;;;;;;6.70;1.20;;;17.30;99.90;;;;;;5014652;28;20121;-58
2022/05/22 07:44:53;;;;;;;8.93;1.35;;;17.00;99.90;;;;;;5031359;28;20121;-59
2022/05/22 07:47:19;;;;;;;7.57;1.20;;;17.10;99.90;;;;;;5032635;28;20254;-59
2022/05/22 07:52:28;;;;;;;8.13;1.20;;;17.50;99.90;;;;;;5050450;28;20047;-59
2022/05/22 07:54:57;;;;;;;8.40;1.50;;;17.80;99.90;;;;;;5032146;28;20120;-60
2022/05/22 07:57:23;;;;;;;8.90;1.60;;;18.00;99.90;;;;;;5030955;28;20077;-60
2022/05/22 07:59:49;;;;;;;6.25;1.20;;;18.30;99.90;;;;;;5031188;28;20151;-59
2022/05/22 08:02:16;;;;;;;9.77;1.50;;;18.50;99.90;;;;;;5064043;28;20111;-59
2022/05/22 08:04:43;;;;;;;7.68;1.17;;;18.60;99.90;;;;;;5047577;28;20045;-59
2022/05/22 08:07:09;;;;;;;7.85;1.65;;;18.70;99.90;;;;;;5030405;28;20088;-60
2022/05/22 08:09:36;;;;;;;7.72;1.33;;;18.80;99.90;;;;;;5063964;28;20049;-60
2022/05/22 08:12:03;;;;;;;6.53;1.38;;;19.20;99.90;;;;;;5032018;28;20120;-60
2022/05/22 08:14:28;;;;;;;10.50;1.58;;;18.60;99.90;;;;;;5030995;28;20136;-60
2022/05/22 08:16:54;;;;;;;7.65;1.35;;;18.40;99.90;;;;;;5030758;28;20088;-60
2022/05/22 08:19:21;;;;;;;12.60;1.63;;;18.70;99.90;;;;;;5030381;28;20047;-60
2022/05/22 08:21:47;;;;;;;6.75;1.30;;;19.10;99.90;;;;;;5030607;28;20052;-60
2022/05/22 08:24:12;;;;;;;9.75;1.30;;;19.50;99.90;;;;;;5031904;28;20041;-59
2022/05/22 08:26:38;;;;;;;8.95;1.60;;;19.60;99.90;;;;;;5013910;28;20484;-60
2022/05/22 08:29:04;;;;;;;8.77;1.27;;;19.90;99.90;;;;;;5030487;28;20056;-60
2022/05/22 08:31:30;;;;;;;9.18;1.63;;;19.80;99.90;;;;;;5031540;28;20095;-60
2022/05/22 08:33:56;;;;;;;7.88;1.63;;;19.30;99.90;;;;;;5032002;28;20056;-60
2022/05/22 08:36:22;;;;;;;8.98;1.70;;;19.10;99.90;;;;;;5030449;28;20488;-60
2022/05/22 08:38:47;;;;;;;9.73;1.75;;;18.30;99.90;;;;;;5031378;28;20041;-60
2022/05/22 08:41:24;;;;;;;9.88;2.00;;;18.20;99.90;;;;;;5031192;28;20472;-60
2022/05/22 08:44:11;;;;;;;8.63;1.73;;;18.40;99.90;;;;;;5063215;28;20052;-60
2022/05/22 08:46:52;;;;;;;7.15;2.00;;;18.80;99.90;;;;;;5031289;28;20478;-60
2022/05/22 08:49:43;;;;;;;9.93;2.00;;;18.80;99.90;;;;;;5030986;28;20073;-60
2022/05/22 08:52:17;;;;;;;8.40;2.08;;;19.00;99.90;;;;;;5030765;28;20041;-60
2022/05/22 08:54:48;;;;;;;7.95;1.67;;;18.90;99.90;;;;;;5062488;28;20135;-60
2022/05/22 09:00:15;;;;;;;8.25;2.13;;;19.60;99.90;;;;;;5028792;28;20418;-60
2022/05/22 09:02:48;;;;;;;12.55;2.28;;;20.20;99.90;;;;;;5045398;28;20067;-60
2022/05/22 09:05:22;;;;;;;8.40;1.95;;;19.80;99.90;;;;;;5029234;28;20582;-60
2022/05/22 09:08:06;;;;;;;9.27;2.38;;;19.80;99.90;;;;;;5030623;28;20045;-60
2022/05/22 09:10:50;;;;;;;9.95;2.13;;;19.90;99.90;;;;;;5030734;28;20115;-60
2022/05/22 09:13:31;;;;;;;11.82;2.40;;;19.60;99.90;;;;;;5062417;28;20041;-60
2022/05/22 09:16:16;;;;;;;8.57;1.85;;;19.30;99.90;;;;;;5045912;28;20042;-60
2022/05/22 09:19:04;;;;;;;9.27;2.50;;;18.90;99.90;;;;;;5029968;28;20514;-60
2022/05/22 09:21:32;;;;;;;9.00;2.33;;;19.10;99.90;;;;;;5029942;28;20057;-60
2022/05/22 09:24:03;;;;;;;8.70;2.00;;;19.30;99.90;;;;;;5028760;28;20048;-59
2022/05/22 09:26:47;;;;;;;8.10;2.35;;;20.00;99.90;;;;;;5061565;28;20088;-59
2022/05/22 09:29:25;;;;;;;6.85;1.40;;;20.20;99.90;;;;;;5028172;28;20045;-60
2022/05/22 09:32:03;;;;;;;8.32;1.75;;;20.40;99.90;;;;;;5029739;28;20117;-59
2022/05/22 09:34:47;;;;;;;9.85;1.45;;;20.60;99.90;;;;;;5061826;28;20492;-60
2022/05/22 09:37:31;;;;;;;7.43;1.30;;;20.80;99.90;;;;;;5028103;28;20088;-60
2022/05/22 09:40:25;;;;;;;7.90;1.25;;;20.70;99.90;;;;;;5028408;28;20344;-60
2022/05/22 09:43:21;;;;;;;9.05;1.80;;;21.20;99.90;;;;;;5028083;28;20519;-59
2022/05/22 09:46:05;;;;;;;7.22;1.30;;;21.80;97.80;;;;;;5028136;28;20119;-61
2022/05/22 09:48:51;;;;;;;7.20;1.20;;;22.10;95.70;;;;;;5027965;28;20045;-60
2022/05/22 09:51:30;;;;;;;8.88;1.58;;;22.20;94.40;;;;;;5027853;28;20056;-60
2022/05/22 09:54:35;;;;;;;9.70;2.13;;;22.40;94.50;;;;;;5027956;28;20063;-60
2022/05/22 09:57:46;;;;;;;7.80;1.70;;;21.50;98.70;;;;;;5007600;28;20499;-60
2022/05/22 10:00:55;;;;;;;8.40;1.88;;;20.90;99.90;;;;;;5058110;28;20049;-60
2022/05/22 10:03:52;;;;;;;10.32;1.83;;;20.30;98.00;;;;;;5027976;28;20573;-60
2022/05/22 10:06:58;;;;;;;7.80;1.67;;;20.40;99.90;;;;;;5027852;28;20420;-60
2022/05/22 10:09:52;;;;;;;6.45;1.85;;;19.90;99.90;;;;;;5027453;28;20037;-60
2022/05/22 10:12:29;;;;;;;11.98;1.73;;;20.40;99.90;;;;;;5027546;28;20045;-60
2022/05/22 10:15:09;;;;;;;9.98;2.42;;;21.00;99.90;;;;;;5011396;28;20041;-60
2022/05/22 10:17:49;;;;;;;7.22;1.55;;;20.30;99.90;;;;;;5011097;28;20057;-60
2022/05/22 10:20:23;;;;;;;8.85;1.48;;;20.70;99.90;;;;;;5027849;28;20056;-61
2022/05/22 10:23:08;;;;;;;8.05;1.90;;;20.50;99.90;;;;;;5043916;28;20076;-59
2022/05/22 10:25:52;;;;;;;5.90;1.30;;;21.10;99.90;;;;;;5044066;28;20076;-60
2022/05/22 10:28:22;;;;;;;6.60;1.67;;;21.10;94.90;;;;;;5044471;28;20045;-60
2022/05/22 10:31:23;;;;;;;9.23;1.80;;;20.70;97.20;;;;;;5033170;28;20042;-60
2022/05/22 10:34:01;;;;;;;7.80;1.65;;;21.20;98.10;;;;;;5030455;28;20057;-61
2022/05/22 10:36:36;;;;;;;8.80;1.73;;;21.80;97.70;;;;;;5033385;28;20362;-60
2022/05/22 10:39:10;;;;;;;9.43;1.73;;;22.10;95.90;;;;;;5064795;28;20128;-59
2022/05/22 10:44:34;;;;;;;7.15;2.05;;;23.30;94.20;;;;;;5031705;28;20049;-60
2022/05/22 10:47:02;;;;;;;6.50;2.05;;;23.60;91.60;;;;;;5031641;28;20106;-60
2022/05/22 10:49:39;;;;;;;7.40;2.05;;;23.40;90.40;;;;;;4998541;28;20049;-60
2022/05/22 10:52:06;;;;;;;11.07;2.38;;;23.40;89.00;;;;;;5029902;28;20424;-60
2022/05/22 10:54:35;;;;;;;10.18;2.35;;;23.20;86.80;;;;;;5013233;28;20061;-60
2022/05/22 10:57:17;;;;;;;8.02;2.10;;;23.10;89.60;;;;;;5013177;28;20198;-60
2022/05/22 10:59:43;;;;;;;6.95;1.00;;;21.60;92.10;;;;;;5013233;28;20123;-61
2022/05/22 11:02:26;;;;;;;5.00;0.98;;;21.90;92.60;;;;;;4980508;28;20053;-60
2022/05/22 11:04:54;;;;;;;9.90;1.45;;;22.00;90.20;;;;;;4996478;28;20045;-60
2022/05/22 11:07:34;;;;;;;7.68;1.85;;;21.60;88.40;;;;;;5012933;28;20127;-60
2022/05/22 11:10:10;;;;;;;8.50;2.13;;;21.50;91.10;;;;;;5013006;28;20038;-61
2022/05/22 11:12:36;;;;;;;8.20;1.75;;;21.20;90.90;;;;;;4996304;28;20046;-61
2022/05/22 11:15:11;;;;;;;8.25;1.75;;;20.90;95.10;;;;;;5029267;28;20053;-61
2022/05/22 11:17:37;;;;;;;7.80;1.65;;;20.80;95.10;;;;;;5029045;28;20045;-61
2022/05/22 11:20:16;;;;;;;6.82;1.85;;;20.70;95.00;;;;;;4996355;28;20056;-61
2022/05/22 11:22:58;;;;;;;8.68;2.75;;;20.60;95.40;;;;;;5016777;28;20419;-61
2022/05/22 11:25:51;;;;;;;7.20;2.15;;;20.60;95.90;;;;;;5063566;28;20049;-61
2022/05/22 11:28:32;;;;;;;6.20;2.53;;;21.10;96.30;;;;;;5063868;28;20060;-61
2022/05/22 11:31:26;;;;;;;8.95;2.80;;;21.30;97.10;;;;;;5030231;28;20092;-59
2022/05/22 11:34:15;;;;;;;8.23;2.55;;;21.70;95.00;;;;;;5030517;28;20060;-59
2022/05/22 11:37:19;;;;;;;9.57;2.70;;;22.00;94.20;;;;;;5030737;28;20038;-60
2022/05/22 11:40:09;;;;;;;6.95;2.38;;;22.50;90.70;;;;;;5007117;28;20527;-59
2022/05/22 11:42:37;;;;;;;6.22;2.75;;;22.90;91.70;;;;;;5030350;28;20132;-60
2022/05/22 11:45:51;;;;;;;8.32;3.00;;;22.30;89.10;;;;;;5046620;28;20050;-60
2022/05/22 11:48:45;;;;;;;7.82;2.50;;;21.40;91.00;;;;;;5014227;28;20569;-61
2022/05/22 11:51:30;;;;;;;;;;;20.80;92.80;;;;;;5031676;28;20076;-59
2022/05/22 11:54:07;;;;;;;9.02;3.15;;;20.10;99.70;;;;;;5032128;28;19974;-60
2022/05/22 11:56:50;;;;;;;7.70;2.90;;;20.30;99.90;;;;;;5032455;28;20147;-60
2022/05/22 11:59:40;;;;;;;8.05;2.47;;;20.70;99.90;;;;;;5032018;28;20037;-59
2022/05/22 12:02:38;;;;;;;9.93;2.78;;;20.90;99.90;;;;;;5030489;28;20064;-60
2022/05/22 12:05:19;;;;;;;6.53;2.25;;;20.90;99.90;;;;;;5047343;28;20137;-60
2022/05/22 12:07:54;;;;;;;7.70;2.28;;;20.60;99.90;;;;;;5063548;28;20041;-61
2022/05/22 12:10:35;;;;;;;8.75;2.45;;;21.10;97.60;;;;;;5031531;28;20626;-61
2022/05/22 12:13:17;;;;;;;6.78;2.22;;;21.50;95.30;;;;;;5029791;28;20172;-61
2022/05/22 12:15:51;;;;;;;8.27;2.03;;;21.40;94.20;;;;;;5062997;28;20049;-60
2022/05/22 12:18:36;;;;;;;6.90;2.00;;;20.90;96.20;;;;;;5031103;28;20053;-61
2022/05/22 12:21:25;;;;;;;9.10;2.22;;;20.60;99.20;;;;;;5029753;28;20077;-61
2022/05/22 12:24:31;;;;;;;8.30;2.33;;;20.30;99.90;;;;;;5029845;28;20180;-60
2022/05/22 12:26:59;;;;;;;7.68;1.98;;;20.60;97.10;;;;;;5029921;28;20045;-61
2022/05/22 12:29:58;;;;;;;5.50;1.75;;;21.10;97.20;;;;;;5045868;28;20053;-60
2022/05/22 12:32:29;;;;;;;8.15;2.03;;;21.50;96.00;;;;;;5042940;28;20349;-60
2022/05/22 12:34:58;;;;;;;7.95;1.77;;;22.00;96.30;;;;;;5062498;28;20045;-59
2022/05/22 12:37:37;;;;;;;8.50;1.92;;;22.40;93.70;;;;;;5029036;28;20072;-60
2022/05/22 12:40:27;;;;;;;6.20;1.90;;;22.70;91.30;;;;;;5029509;28;20435;-61
2022/05/22 12:42:57;;;;;;;7.50;2.00;;;23.20;86.50;;;;;;5043793;28;20045;-61
2022/05/22 12:45:28;;;;;;;6.03;1.80;;;23.20;92.30;;;;;;5030420;28;20176;-61
2022/05/22 12:48:10;;;;;;;6.50;1.90;;;23.20;82.10;;;;;;5043528;28;20037;-62
2022/05/22 12:50:47;;;;;;;6.05;1.67;;;23.20;82.40;;;;;;5031816;28;20046;-61
2022/05/22 12:53:26;;;;;;;7.20;1.75;;;23.30;87.70;;;;;;5040694;28;20528;-61
2022/05/22 12:55:53;;;;;;;5.85;1.60;;;23.60;86.70;;;;;;5046974;28;20659;-61
2022/05/22 12:59:01;;;;;;;5.28;1.70;;;23.90;88.20;;;;;;5039565;28;20079;-61
2022/05/22 13:01:38;;;;;;;8.95;2.13;;;24.30;81.40;;;;;;5006032;28;20048;-61
2022/05/22 13:04:15;;;;;;;7.57;1.73;;;23.90;81.70;;;;;;5038400;28;20045;-61
2022/05/22 13:06:56;;;;;;;8.52;1.63;;;23.90;80.70;;;;;;5051672;28;20038;-61
2022/05/22 13:09:33;;;;;;;7.07;1.40;;;24.40;76.00;;;;;;5035680;28;20069;-61
2022/05/22 13:12:05;;;;;;;5.32;1.08;;;24.60;76.50;;;;;;5043677;28;20068;-61
2022/05/22 13:15:03;;;;;;;6.13;1.80;;;24.80;82.70;;;;;;5030939;28;20037;-59
2022/05/22 13:17:51;;;;;;;6.47;1.20;;;24.70;77.10;;;;;;5033996;28;20512;-60
2022/05/22 13:20:26;;;;;;;6.28;1.55;;;25.00;75.10;;;;;;5036984;28;20056;-61
2022/05/22 13:23:33;;;;;;;6.38;1.70;;;25.10;75.70;;;;;;5030328;28;20045;-61